createdAt,value
2023-05-14T00:02:01.825Z,5.22
2023-05-14T00:05:05.122Z,7.00
2023-05-14T00:08:07.722Z,7.38
2023-05-14T00:11:10.215Z,8.20
2023-05-14T00:14:12.605Z,6.85
2023-05-14T00:17:15.031Z,6.40
2023-05-14T00:20:17.541Z,5.90
2023-05-14T00:23:20.328Z,6.78
2023-05-14T00:26:22.846Z,6.00
2023-05-14T00:29:25.309Z,6.53
2023-05-14T00:32:27.836Z,6.43
2023-05-14T00:35:30.639Z,5.13
2023-05-14T00:38:33.072Z,4.72
2023-05-14T00:41:35.803Z,5.47
2023-05-14T00:44:38.259Z,4.03
2023-05-14T00:47:41.020Z,4.78
2023-05-14T00:50:43.728Z,6.32
2023-05-14T00:53:47.245Z,4.82
2023-05-14T00:56:50.529Z,4.33
2023-05-14T00:59:53.084Z,4.10
2023-05-14T01:02:55.720Z,5.85
2023-05-14T01:06:26.396Z,6.78
2023-05-14T01:09:46.337Z,7.00
2023-05-14T01:13:25.597Z,6.37
2023-05-14T01:16:29.106Z,6.10
2023-05-14T01:19:41.754Z,6.00
2023-05-14T01:22:44.175Z,4.95
2023-05-14T01:25:46.794Z,4.13
2023-05-14T01:28:49.706Z,5.67
2023-05-14T01:31:54.233Z,7.53
2023-05-14T01:34:58.608Z,5.80
2023-05-14T01:38:05.121Z,7.30
2023-05-14T01:41:07.630Z,6.72
2023-05-14T01:44:10.707Z,5.73
2023-05-14T01:47:13.440Z,6.57
2023-05-14T01:50:16.000Z,5.25
2023-05-14T01:53:18.392Z,5.78
2023-05-14T01:56:24.344Z,5.10
2023-05-14T01:59:26.859Z,5.90
2023-05-14T02:02:29.277Z,6.93
2023-05-14T02:05:31.747Z,6.75
2023-05-14T02:08:34.252Z,7.43
2023-05-14T02:11:36.730Z,6.65
2023-05-14T02:14:39.238Z,7.07
2023-05-14T02:17:41.713Z,8.32
2023-05-14T02:20:46.771Z,7.25
2023-05-14T02:23:50.218Z,7.03
2023-05-14T02:26:52.726Z,7.72
2023-05-14T02:29:56.655Z,8.30
2023-05-14T02:32:59.292Z,6.78
2023-05-14T02:36:01.742Z,7.03
2023-05-14T02:39:04.848Z,9.73
2023-05-14T02:42:07.553Z,8.57
2023-05-14T02:45:10.358Z,8.13
2023-05-14T02:48:12.931Z,8.40
2023-05-14T02:51:16.382Z,6.95
2023-05-14T02:54:18.800Z,14.35
2023-05-14T02:57:21.341Z,20.00
2023-05-14T03:00:24.271Z,14.73
2023-05-14T03:03:27.289Z,14.93
2023-05-14T03:06:31.230Z,12.13
2023-05-14T03:09:34.635Z,12.18
2023-05-14T03:12:38.572Z,9.73
2023-05-14T03:15:41.164Z,7.90
2023-05-14T03:18:43.702Z,7.47
2023-05-14T03:21:46.265Z,8.05
2023-05-14T03:24:48.764Z,6.13
2023-05-14T03:27:51.189Z,7.13
2023-05-14T03:30:53.739Z,4.93
2023-05-14T03:33:56.183Z,6.28
2023-05-14T03:36:58.576Z,6.47
2023-05-14T03:40:00.921Z,5.95
2023-05-14T03:43:03.338Z,4.80
2023-05-14T03:46:05.792Z,4.70
2023-05-14T03:49:08.952Z,6.20
2023-05-14T03:52:11.443Z,4.22
2023-05-14T03:55:13.959Z,5.35
2023-05-14T03:58:17.695Z,4.85
2023-05-14T04:01:20.140Z,4.03
2023-05-14T04:04:22.588Z,3.25
2023-05-14T04:07:25.013Z,4.15
2023-05-14T04:10:29.133Z,4.47
2023-05-14T04:13:31.604Z,3.55
2023-05-14T04:16:34.406Z,3.77
2023-05-14T04:19:36.917Z,3.28
2023-05-14T04:22:39.344Z,3.80
2023-05-14T04:25:42.193Z,2.90
2023-05-14T04:28:44.630Z,4.22
2023-05-14T04:31:47.152Z,3.00
2023-05-14T04:34:49.583Z,3.92
2023-05-14T04:37:52.062Z,4.13
2023-05-14T04:40:54.513Z,3.40
2023-05-14T04:43:57.094Z,3.30
2023-05-14T04:46:59.462Z,3.00
2023-05-14T04:50:02.352Z,3.65
2023-05-14T04:53:04.872Z,2.63
2023-05-14T04:56:07.477Z,2.38
2023-05-14T04:59:09.893Z,3.30
2023-05-14T05:02:12.268Z,2.90
2023-05-14T05:05:14.718Z,3.60
2023-05-14T05:08:17.080Z,2.60
2023-05-14T05:11:19.511Z,3.50
2023-05-14T05:14:21.985Z,3.78
2023-05-14T05:17:25.107Z,4.43
2023-05-14T05:20:28.329Z,3.20
2023-05-14T05:23:30.718Z,2.72
2023-05-14T05:26:33.244Z,2.08
2023-05-14T05:29:35.717Z,2.63
2023-05-14T05:32:38.285Z,3.57
2023-05-14T05:35:40.958Z,4.35
2023-05-14T05:38:43.484Z,3.17
2023-05-14T05:41:45.870Z,3.03
2023-05-14T05:44:48.339Z,3.10
2023-05-14T05:47:50.930Z,3.70
2023-05-14T05:50:53.409Z,4.50
2023-05-14T05:53:56.008Z,5.05
2023-05-14T05:56:59.225Z,4.22
2023-05-14T06:00:07.973Z,3.60
2023-05-14T06:03:15.205Z,5.83
2023-05-14T06:06:17.681Z,3.42
2023-05-14T06:09:20.148Z,4.28
2023-05-14T06:12:22.578Z,3.08
2023-05-14T06:15:25.043Z,3.35
2023-05-14T06:18:27.500Z,5.20
2023-05-14T06:21:29.904Z,4.57
2023-05-14T06:24:33.019Z,4.53
2023-05-14T06:27:35.388Z,3.53
2023-05-14T06:30:37.820Z,3.80
2023-05-14T06:33:40.561Z,4.27
2023-05-14T06:36:43.029Z,4.32
2023-05-14T06:39:50.141Z,4.90
2023-05-14T06:42:52.659Z,4.53
2023-05-14T06:45:55.622Z,4.03
2023-05-14T06:48:59.546Z,6.30
2023-05-14T06:52:02.364Z,5.30
2023-05-14T06:55:05.085Z,5.32
2023-05-14T06:58:08.281Z,4.78
2023-05-14T07:01:10.742Z,4.90
2023-05-14T07:04:13.226Z,5.17
2023-05-14T07:07:18.345Z,3.83
2023-05-14T07:10:20.926Z,4.18
2023-05-14T07:13:24.943Z,5.60
2023-05-14T07:16:28.841Z,4.35
2023-05-14T07:19:31.367Z,6.97
2023-05-14T07:22:33.903Z,3.40
2023-05-14T07:25:36.388Z,5.03
2023-05-14T07:28:38.901Z,3.92
2023-05-14T07:31:41.347Z,3.35
2023-05-14T07:34:43.875Z,3.77
2023-05-14T07:37:46.392Z,4.00
2023-05-14T07:40:48.840Z,4.15
2023-05-14T07:43:51.352Z,5.95
2023-05-14T07:46:53.843Z,6.38
2023-05-14T07:49:59.328Z,5.10
2023-05-14T07:53:01.802Z,7.13
2023-05-14T07:56:04.534Z,4.65
2023-05-14T07:59:07.471Z,4.72
2023-05-14T08:02:13.119Z,5.35
2023-05-14T08:05:15.933Z,4.10
2023-05-14T08:08:18.384Z,4.55
2023-05-14T08:11:22.397Z,4.57
2023-05-14T08:14:24.845Z,10.00
2023-05-14T08:17:27.401Z,3.78
2023-05-14T08:20:31.199Z,4.00
2023-05-14T08:23:33.684Z,3.28
2023-05-14T08:26:36.085Z,4.13
2023-05-14T08:29:38.526Z,3.42
2023-05-14T08:32:41.248Z,4.47
2023-05-14T08:35:43.800Z,3.53
2023-05-14T08:38:46.263Z,4.78
2023-05-14T08:41:48.747Z,5.95
2023-05-14T08:44:59.148Z,4.82
2023-05-14T08:48:05.644Z,5.43
2023-05-14T08:51:08.278Z,4.70
2023-05-14T08:54:10.780Z,4.68
2023-05-14T08:57:13.323Z,4.28
2023-05-14T09:00:15.988Z,3.47
2023-05-14T09:03:18.755Z,3.88
2023-05-14T09:06:22.297Z,3.53
2023-05-14T09:09:24.829Z,5.50
2023-05-14T09:12:27.343Z,3.78
2023-05-14T09:15:30.605Z,4.55
2023-05-14T09:18:33.221Z,5.38
2023-05-14T09:21:35.822Z,3.50
2023-05-14T09:24:41.882Z,3.92
2023-05-14T09:27:50.166Z,3.50
2023-05-14T09:30:52.748Z,4.53
2023-05-14T09:33:55.285Z,4.40
2023-05-14T09:37:08.536Z,4.73
2023-05-14T09:40:12.034Z,4.18
2023-05-14T09:43:14.959Z,3.22
2023-05-14T09:46:17.824Z,4.15
2023-05-14T09:49:20.646Z,4.32
2023-05-14T09:52:26.459Z,5.60
2023-05-14T09:55:29.362Z,5.57
2023-05-14T09:58:31.890Z,4.15
2023-05-14T10:01:34.608Z,4.90
2023-05-14T10:04:37.490Z,3.83
2023-05-14T10:07:48.286Z,3.43
2023-05-14T10:10:59.075Z,2.72
2023-05-14T10:14:08.683Z,4.22
2023-05-14T10:17:18.296Z,5.10
2023-05-14T10:20:21.074Z,3.97
2023-05-14T10:23:23.867Z,3.40
2023-05-14T10:26:26.583Z,3.33
2023-05-14T10:29:34.213Z,5.32
2023-05-14T10:32:38.025Z,5.10
2023-05-14T10:36:06.132Z,2.53
2023-05-14T10:39:09.144Z,2.40
2023-05-14T10:42:16.626Z,3.20
2023-05-14T10:45:19.138Z,3.25
2023-05-14T10:48:21.879Z,2.83
2023-05-14T10:51:24.428Z,2.88
2023-05-14T10:54:28.211Z,3.70
2023-05-14T10:57:31.697Z,2.60
2023-05-14T11:00:34.433Z,2.33
2023-05-14T11:03:43.020Z,1.60
2023-05-14T11:06:47.442Z,2.97
2023-05-14T11:09:51.023Z,3.10
2023-05-14T11:12:53.400Z,2.17
2023-05-14T11:15:56.108Z,2.83
2023-05-14T11:19:03.509Z,1.98
2023-05-14T11:22:06.645Z,2.42
2023-05-14T11:25:10.165Z,1.97
2023-05-14T11:28:12.565Z,1.88
2023-05-14T11:31:15.238Z,3.78
2023-05-14T11:34:17.681Z,2.90
2023-05-14T11:37:20.370Z,2.40
2023-05-14T11:40:22.968Z,2.70
2023-05-14T11:43:29.465Z,2.90
2023-05-14T11:46:32.087Z,2.63
2023-05-14T11:49:37.479Z,2.08
2023-05-14T11:52:41.372Z,2.45
2023-05-14T11:55:43.899Z,1.67
2023-05-14T11:58:49.420Z,2.22
2023-05-14T12:01:54.848Z,3.75
2023-05-14T12:04:57.564Z,1.52
2023-05-14T12:07:59.929Z,1.77
2023-05-14T12:11:02.377Z,2.13
2023-05-14T12:14:30.858Z,4.18
2023-05-14T12:17:33.410Z,1.60
2023-05-14T12:20:36.140Z,7.70
2023-05-14T12:23:38.937Z,2.50
2023-05-14T12:26:46.609Z,1.80
2023-05-14T12:29:48.980Z,2.35
2023-05-14T12:32:53.057Z,5.55
2023-05-14T12:36:09.921Z,1.73
2023-05-14T12:39:22.586Z,3.45
2023-05-14T12:42:25.023Z,6.10
2023-05-14T12:45:27.450Z,7.65
2023-05-14T12:48:29.986Z,3.05
2023-05-14T12:51:32.495Z,2.92
2023-05-14T12:54:34.871Z,3.97
2023-05-14T12:57:39.320Z,2.60
2023-05-14T13:00:42.251Z,4.47
2023-05-14T13:03:44.750Z,3.35
2023-05-14T13:06:47.548Z,2.05
2023-05-14T13:09:49.986Z,2.47
2023-05-14T13:12:52.782Z,4.37
2023-05-14T13:15:55.657Z,2.30
2023-05-14T13:18:58.332Z,4.57
2023-05-14T13:22:00.847Z,3.58
2023-05-14T13:25:03.459Z,3.85
2023-05-14T13:28:05.981Z,3.07
2023-05-14T13:31:12.618Z,2.45
2023-05-14T13:34:15.118Z,4.68
2023-05-14T13:37:17.614Z,3.13
2023-05-14T13:40:20.085Z,2.33
2023-05-14T13:43:22.463Z,11.53
2023-05-14T13:46:25.005Z,4.75
2023-05-14T13:49:27.476Z,2.75
2023-05-14T13:52:30.040Z,2.42
2023-05-14T13:55:32.473Z,2.17
2023-05-14T13:58:35.023Z,2.07
2023-05-14T14:01:37.524Z,2.22
2023-05-14T14:04:40.014Z,1.65
2023-05-14T14:07:42.747Z,2.78
2023-05-14T14:10:45.343Z,3.65
2023-05-14T14:13:47.917Z,2.23
2023-05-14T14:16:50.961Z,1.63
2023-05-14T14:19:53.511Z,2.97
2023-05-14T14:22:56.201Z,2.95
2023-05-14T14:25:58.679Z,1.38
2023-05-14T14:29:01.110Z,2.90
2023-05-14T14:32:04.271Z,2.17
2023-05-14T14:35:07.140Z,2.78
2023-05-14T14:38:09.679Z,2.88
2023-05-14T14:41:12.319Z,3.97
2023-05-14T14:44:14.767Z,3.40
2023-05-14T14:47:17.296Z,3.58
2023-05-14T14:50:19.825Z,8.88
2023-05-14T14:53:22.432Z,4.85
2023-05-14T14:56:26.982Z,5.55
2023-05-14T14:59:29.477Z,4.83
2023-05-14T15:02:32.042Z,4.43
2023-05-14T15:05:34.703Z,3.67
2023-05-14T15:08:37.350Z,3.97
2023-05-14T15:11:39.933Z,4.50
2023-05-14T15:14:42.392Z,4.73
2023-05-14T15:17:44.932Z,14.45
2023-05-14T15:20:47.390Z,26.63
2023-05-14T15:23:49.851Z,28.17
2023-05-14T15:26:53.388Z,8.27
2023-05-14T15:29:56.262Z,6.07
2023-05-14T15:32:58.744Z,7.43
2023-05-14T15:36:01.182Z,6.25
2023-05-14T15:39:03.652Z,6.07
2023-05-14T15:42:06.580Z,6.50
2023-05-14T15:45:10.435Z,9.27
2023-05-14T15:48:12.872Z,11.10
2023-05-14T15:51:15.431Z,10.82
2023-05-14T15:54:18.011Z,14.48
2023-05-14T15:57:20.451Z,11.57
2023-05-14T16:00:24.868Z,8.87
2023-05-14T16:03:27.666Z,10.43
2023-05-14T16:06:30.206Z,10.30
2023-05-14T16:09:33.735Z,6.45
2023-05-14T16:12:36.203Z,5.70
2023-05-14T16:15:39.887Z,6.43
2023-05-14T16:18:43.270Z,5.50
2023-05-14T16:21:45.733Z,6.80
2023-05-14T16:24:48.219Z,6.07
2023-05-14T16:27:50.787Z,5.22
2023-05-14T16:30:53.266Z,11.13
2023-05-14T16:33:55.833Z,12.25
2023-05-14T16:36:59.496Z,12.32
2023-05-14T16:40:02.129Z,9.13
2023-05-14T16:43:04.656Z,6.55
2023-05-14T16:46:07.128Z,8.43
2023-05-14T16:49:09.616Z,12.18
2023-05-14T16:52:12.067Z,10.40
2023-05-14T16:55:14.562Z,10.00
2023-05-14T16:58:17.035Z,12.65
2023-05-14T17:01:19.570Z,22.53
2023-05-14T17:04:22.789Z,16.23
2023-05-14T17:07:25.224Z,12.52
2023-05-14T17:10:27.742Z,11.20
2023-05-14T17:13:30.555Z,17.63
2023-05-14T17:16:33.049Z,31.83
2023-05-14T17:19:35.552Z,16.55
2023-05-14T17:22:38.096Z,35.08
2023-05-14T17:25:40.681Z,23.15
2023-05-14T17:28:45.489Z,19.58
2023-05-14T17:31:48.733Z,24.40
2023-05-14T17:34:51.376Z,24.15
2023-05-14T17:37:53.959Z,22.45
2023-05-14T17:40:56.480Z,14.65
2023-05-14T17:43:59.467Z,12.73
2023-05-14T17:47:03.182Z,11.97
2023-05-14T17:50:06.148Z,12.02
2023-05-14T17:53:08.759Z,10.52
2023-05-14T17:56:11.396Z,10.02
2023-05-14T17:59:13.861Z,12.48
2023-05-14T18:02:16.304Z,14.03
2023-05-14T18:05:20.934Z,10.60
2023-05-14T18:08:23.518Z,11.60
2023-05-14T18:11:26.524Z,11.00
2023-05-14T18:14:28.972Z,27.77
2023-05-14T18:17:31.457Z,18.20
2023-05-14T18:20:35.537Z,19.48
2023-05-14T18:23:38.206Z,23.63
2023-05-14T18:26:40.890Z,47.30
2023-05-14T18:29:43.926Z,31.65
2023-05-14T18:32:46.753Z,30.63
2023-05-14T18:35:49.268Z,29.20
2023-05-14T18:38:51.741Z,20.10
2023-05-14T18:41:55.122Z,15.52
2023-05-14T18:44:57.505Z,14.80
2023-05-14T18:48:00.164Z,12.00
2023-05-14T18:51:02.896Z,13.75
2023-05-14T18:54:05.399Z,14.35
2023-05-14T18:57:08.123Z,9.52
2023-05-14T19:00:11.171Z,8.65
2023-05-14T19:03:13.898Z,9.97
2023-05-14T19:06:17.861Z,10.27
2023-05-14T19:09:21.334Z,7.13
2023-05-14T19:12:24.047Z,7.88
2023-05-14T19:15:26.826Z,9.40
2023-05-14T19:18:29.787Z,10.57
2023-05-14T19:21:32.389Z,8.38
2023-05-14T19:24:35.138Z,9.13
2023-05-14T19:27:38.476Z,16.35
2023-05-14T19:30:41.376Z,20.30
2023-05-14T19:33:43.989Z,12.17
2023-05-14T19:36:46.638Z,9.10
2023-05-14T19:39:49.145Z,7.35
2023-05-14T19:42:51.646Z,9.48
2023-05-14T19:45:54.385Z,8.90
2023-05-14T19:48:56.999Z,9.63
2023-05-14T19:51:59.437Z,7.88
2023-05-14T19:55:01.920Z,8.75
2023-05-14T19:58:07.766Z,9.20
2023-05-14T20:01:10.258Z,8.98
2023-05-14T20:04:14.124Z,11.83
2023-05-14T20:07:17.205Z,12.07
2023-05-14T20:10:20.627Z,8.00
2023-05-14T20:13:25.056Z,10.65
2023-05-14T20:16:28.660Z,9.93
2023-05-14T20:19:31.260Z,10.30
2023-05-14T20:22:33.701Z,10.13
2023-05-14T20:25:36.149Z,10.35
2023-05-14T20:28:38.614Z,9.75
2023-05-14T20:31:41.181Z,9.23
2023-05-14T20:34:43.880Z,9.67
2023-05-14T20:37:47.287Z,9.90
2023-05-14T20:40:49.809Z,9.90
2023-05-14T20:43:52.294Z,9.05
2023-05-14T20:46:54.805Z,7.97
2023-05-14T20:49:57.220Z,6.60
2023-05-14T20:52:59.790Z,5.45
2023-05-14T20:56:02.357Z,7.45
2023-05-14T20:59:04.762Z,7.97
2023-05-14T21:02:07.522Z,7.70
2023-05-14T21:05:10.092Z,6.73
2023-05-14T21:08:12.669Z,7.18
2023-05-14T21:11:15.212Z,7.50
2023-05-14T21:14:17.666Z,6.38
2023-05-14T21:17:20.304Z,6.38
2023-05-14T21:20:23.074Z,5.57
2023-05-14T21:23:25.527Z,5.70
2023-05-14T21:26:30.706Z,6.80
2023-05-14T21:29:33.157Z,7.97
2023-05-14T21:32:35.641Z,7.13
2023-05-14T21:35:38.202Z,6.10
2023-05-14T21:38:41.008Z,9.32
2023-05-14T21:41:43.496Z,6.72
2023-05-14T21:44:45.919Z,7.13
2023-05-14T21:47:48.448Z,7.00
2023-05-14T21:50:50.900Z,5.07
2023-05-14T21:53:53.317Z,6.53
2023-05-14T21:56:55.822Z,8.27
2023-05-14T21:59:58.303Z,6.18
2023-05-14T22:03:00.763Z,6.97
2023-05-14T22:06:03.490Z,6.13
2023-05-14T22:09:05.907Z,7.40
2023-05-14T22:12:08.476Z,5.70
2023-05-14T22:15:11.621Z,7.50
2023-05-14T22:18:15.416Z,8.73
2023-05-14T22:21:17.876Z,6.13
2023-05-14T22:24:20.342Z,6.78
2023-05-14T22:27:23.031Z,6.15
2023-05-14T22:30:25.552Z,5.90
2023-05-14T22:33:27.967Z,5.07
2023-05-14T22:36:30.496Z,6.40
2023-05-14T22:39:32.929Z,6.15
2023-05-14T22:42:35.506Z,6.22
2023-05-14T22:45:37.990Z,8.00
2023-05-14T22:48:40.514Z,7.22
2023-05-14T22:51:42.905Z,6.70
2023-05-14T22:54:46.654Z,7.50
2023-05-14T22:57:49.124Z,7.25
2023-05-14T23:00:51.518Z,6.40
2023-05-14T23:03:53.933Z,6.22
2023-05-14T23:06:56.348Z,5.80
2023-05-14T23:09:58.742Z,7.63
2023-05-14T23:13:01.367Z,6.43
2023-05-14T23:16:04.177Z,6.60
2023-05-14T23:19:06.893Z,6.50
2023-05-14T23:22:09.464Z,7.60
2023-05-14T23:25:11.873Z,5.22
2023-05-14T23:28:14.593Z,6.82
2023-05-14T23:31:17.022Z,6.22
2023-05-14T23:34:19.594Z,7.35
2023-05-14T23:37:22.083Z,8.60
2023-05-14T23:40:24.541Z,5.78
2023-05-14T23:43:27.034Z,6.75
2023-05-14T23:46:29.657Z,4.95
2023-05-14T23:49:32.256Z,5.93
2023-05-14T23:52:34.760Z,6.90
2023-05-14T23:55:37.149Z,8.15
2023-05-14T23:58:39.615Z,6.75
